首页
METAR-TAF:

METAR-TAF

机场 :

比利·畢曉普多倫多市機場

多伦多 City Centre, 安大略省, 加拿大

纬度: 43-38N, 经度: 079-24W, 海拔: 77米

当前天气观测

该预报发布于41分钟前的20:00 UTC
风速14节,风向西转西北,在西之间变化
温度 4°C
湿度 60%
气压 998 hPa
能見度: 14.5公里
天空无云

METAR: CYTZ 162000Z AUTO 29014KT 280V350 9SM CLR 04/M03 A2946 RMK SLP980

时间: 15:41 (20:41 UTC)

预报

该预报发布于1小时和0分钟前的19:41 UTC
预报有效从16日的 20点(UTC)到 17日的 20点(UTC)
风速12节,风向西
能見度: 10公里
散云层高于2500英尺
短暂存在
从 16日的 20点(UTC)到 17日的 02点(UTC)
多云层高于2500英尺
从 17日的 0200点(UTC)
风速12节,风向西
能見度: 10公里
多云层高于2000英尺
短暂存在
从 17日的 02点(UTC)到 17日的 06点(UTC)
多云层高于2500英尺

TAF: CYTZ 161941Z 1620/1720 28012KT P6SM SCT025 TEMPO 1620/1702 BKN025 FM170200 26012KT P6SM BKN020 TEMPO 1702/1706 BKN025 RMK FCST BASED ON AUTO OBS. NXT FCST BY 170200Z

超过4000个机场的气象观测和天气预报(METAR&TAF报告)。

可查询的气象台以黄色和红色小点在地图上表示。

将鼠标移到小点上方,可查看气象台名称。

然后点击查看天气观测和预报。

如需切换地图:点击带黑十字的绿色按钮放大地图;点击带横线的绿色按钮缩小地图;或者点击绿色箭头查看邻近地区的地图。


METAR-TAF: